Startpagina
METAR-TAF:

METAR-TAF

Vliegvelden :

OR Tambo International Airport

Johannesburg, Zuid-Afrika

breedte: 26-08S, lengte: 028-14E, hoogte: 1694 m

Actueel weer

Dit bericht is 38 minuten geleden gemaakt, om 20:30 UTC
Wind 6 kt uit het westen
Temperatuur 15°C
Vochtigheid 51%
Druk 1028 hPa
Zicht 10 km of meer
geen wolken onder 1500 m en geen cumulonimbus

METAR: FAOR 232030Z 28006KT CAVOK 15/05 Q1028 NOSIG

Tijdstip: 23:08 (21:08 UTC)

Verwachting

Dit bericht is 5 uur en het 8 minuten geleden gemaakt, om 16:00 UTC
Verwachting geldig van 23 om 18 UTC tot 24 om 24 UTC
Wind 3 kt uit variabele richting
Zicht 10 km of meer
geen wolken onder 1500 m en geen cumulonimbus
Wijzigt naar
van 24 om 07 UTC tot 24 om 09 UTC
Wind 10 kt uit het oosten
Wijzigt naar
van 24 om 11 UTC tot 24 om 13 UTC
Wind 3 kt uit variabele richting

TAF: FAOR 231600Z 2318/2424 VRB03KT CAVOK TX23/2412Z TN10/2401Z BECMG 2407/2409 10010KT BECMG 2411/2413 VRB03KT

Waarnemingen en weersverwachtingen van meer dan 4000 vliegvelden (METAR en TAF).

De beschikbare stations zijn de gele en rode punten op de kaart.

Ga met uw muis naar het station om de naam te zien.

Klik dan om waarnemingen en weersverwachtingen te zien.

kaart wijzigen: klik op de groene knoppen met een zwart kruis om in te zoomen, op de groene knop met een streepje om uit te zoomen of op de groene pijlen voor aangrenzende kaarten.


METAR-TAF: